sensor_id;sensor_type;location;lat;lon;timestamp;P1;durP1;ratioP1;P2;durP2;ratioP2
75435;SDS011;64014;53.432;14.534;2022-12-18T00:00:56;31.80;;;9.85;;
75435;SDS011;64014;53.432;14.534;2022-12-18T00:03:22;39.72;;;12.05;;
75435;SDS011;64014;53.432;14.534;2022-12-18T00:05:48;32.80;;;10.05;;
75435;SDS011;64014;53.432;14.534;2022-12-18T00:08:15;34.17;;;10.15;;
75435;SDS011;64014;53.432;14.534;2022-12-18T00:10:42;38.03;;;10.05;;
75435;SDS011;64014;53.432;14.534;2022-12-18T00:13:09;32.95;;;10.25;;
75435;SDS011;64014;53.432;14.534;2022-12-18T00:15:35;41.58;;;9.25;;
75435;SDS011;64014;53.432;14.534;2022-12-18T00:18:01;32.92;;;9.13;;
75435;SDS011;64014;53.432;14.534;2022-12-18T00:20:27;38.97;;;9.73;;
75435;SDS011;64014;53.432;14.534;2022-12-18T00:22:53;40.40;;;9.27;;
75435;SDS011;64014;53.432;14.534;2022-12-18T00:25:19;32.67;;;9.07;;
75435;SDS011;64014;53.432;14.534;2022-12-18T00:27:45;42.47;;;10.20;;
75435;SDS011;64014;53.432;14.534;2022-12-18T00:30:11;64.88;;;10.70;;
75435;SDS011;64014;53.432;14.534;2022-12-18T00:32:37;44.03;;;10.38;;
75435;SDS011;64014;53.432;14.534;2022-12-18T00:35:03;41.63;;;9.20;;
75435;SDS011;64014;53.432;14.534;2022-12-18T00:37:30;56.67;;;9.88;;
75435;SDS011;64014;53.432;14.534;2022-12-18T00:39:55;57.63;;;10.70;;
75435;SDS011;64014;53.432;14.534;2022-12-18T00:42:21;75.68;;;11.98;;
75435;SDS011;64014;53.432;14.534;2022-12-18T00:45:05;50.28;;;10.15;;
75435;SDS011;64014;53.432;14.534;2022-12-18T00:47:31;72.10;;;11.38;;
75435;SDS011;64014;53.432;14.534;2022-12-18T00:49:57;43.17;;;10.85;;
75435;SDS011;64014;53.432;14.534;2022-12-18T00:52:23;34.65;;;10.88;;
75435;SDS011;64014;53.432;14.534;2022-12-18T00:54:48;42.58;;;11.35;;
75435;SDS011;64014;53.432;14.534;2022-12-18T00:57:14;41.30;;;9.30;;
75435;SDS011;64014;53.432;14.534;2022-12-18T00:59:40;58.67;;;11.70;;
75435;SDS011;64014;53.432;14.534;2022-12-18T01:02:05;44.33;;;10.68;;
75435;SDS011;64014;53.432;14.534;2022-12-18T01:04:32;52.15;;;10.80;;
75435;SDS011;64014;53.432;14.534;2022-12-18T01:06:58;46.40;;;10.65;;
75435;SDS011;64014;53.432;14.534;2022-12-18T01:09:24;48.63;;;11.00;;
75435;SDS011;64014;53.432;14.534;2022-12-18T01:11:49;50.10;;;11.48;;
75435;SDS011;64014;53.432;14.534;2022-12-18T01:14:15;44.90;;;11.82;;
75435;SDS011;64014;53.432;14.534;2022-12-18T01:16:41;56.17;;;11.27;;
75435;SDS011;64014;53.432;14.534;2022-12-18T01:19:07;52.38;;;14.50;;
75435;SDS011;64014;53.432;14.534;2022-12-18T01:21:32;48.30;;;12.27;;
75435;SDS011;64014;53.432;14.534;2022-12-18T01:23:58;63.70;;;12.55;;
75435;SDS011;64014;53.432;14.534;2022-12-18T01:26:25;62.60;;;12.32;;
75435;SDS011;64014;53.432;14.534;2022-12-18T01:28:53;50.80;;;12.65;;
75435;SDS011;64014;53.432;14.534;2022-12-18T01:31:24;73.93;;;11.90;;
75435;SDS011;64014;53.432;14.534;2022-12-18T01:33:54;73.43;;;17.23;;
75435;SDS011;64014;53.432;14.534;2022-12-18T01:38:50;44.63;;;11.00;;
75435;SDS011;64014;53.432;14.534;2022-12-18T01:41:17;37.65;;;9.68;;
75435;SDS011;64014;53.432;14.534;2022-12-18T01:43:49;53.55;;;11.70;;
75435;SDS011;64014;53.432;14.534;2022-12-18T01:46:19;55.90;;;12.50;;
75435;SDS011;64014;53.432;14.534;2022-12-18T01:48:50;44.67;;;11.85;;
75435;SDS011;64014;53.432;14.534;2022-12-18T01:51:24;55.58;;;12.02;;
75435;SDS011;64014;53.432;14.534;2022-12-18T01:53:52;44.15;;;10.85;;
75435;SDS011;64014;53.432;14.534;2022-12-18T01:56:18;44.60;;;11.98;;
75435;SDS011;64014;53.432;14.534;2022-12-18T01:58:52;38.60;;;10.50;;
75435;SDS011;64014;53.432;14.534;2022-12-18T02:01:28;52.67;;;10.25;;
75435;SDS011;64014;53.432;14.534;2022-12-18T02:03:56;50.90;;;11.35;;
75435;SDS011;64014;53.432;14.534;2022-12-18T02:06:40;42.08;;;11.45;;
75435;SDS011;64014;53.432;14.534;2022-12-18T02:09:18;34.92;;;9.57;;
75435;SDS011;64014;53.432;14.534;2022-12-18T02:20:21;30.65;;;8.43;;
75435;SDS011;64014;53.432;14.534;2022-12-18T02:23:26;34.63;;;9.05;;
75435;SDS011;64014;53.432;14.534;2022-12-18T02:26:30;34.20;;;9.35;;
75435;SDS011;64014;53.432;14.534;2022-12-18T02:29:00;33.63;;;9.07;;
75435;SDS011;64014;53.432;14.534;2022-12-18T02:31:31;30.63;;;9.32;;
75435;SDS011;64014;53.432;14.534;2022-12-18T02:34:04;43.97;;;9.95;;
75435;SDS011;64014;53.432;14.534;2022-12-18T02:36:32;33.70;;;8.65;;
75435;SDS011;64014;53.432;14.534;2022-12-18T02:38:59;29.73;;;9.80;;
75435;SDS011;64014;53.432;14.534;2022-12-18T02:43:55;29.10;;;8.73;;
75435;SDS011;64014;53.432;14.534;2022-12-18T02:49:10;28.15;;;8.30;;
75435;SDS011;64014;53.432;14.534;2022-12-18T03:00:43;30.65;;;8.18;;
75435;SDS011;64014;53.432;14.534;2022-12-18T03:06:18;38.40;;;9.55;;
75435;SDS011;64014;53.432;14.534;2022-12-18T03:09:06;41.33;;;9.10;;
75435;SDS011;64014;53.432;14.534;2022-12-18T03:11:37;34.95;;;10.55;;
75435;SDS011;64014;53.432;14.534;2022-12-18T03:14:25;34.58;;;9.25;;
75435;SDS011;64014;53.432;14.534;2022-12-18T03:16:54;32.88;;;9.35;;
75435;SDS011;64014;53.432;14.534;2022-12-18T03:19:26;38.13;;;9.02;;
75435;SDS011;64014;53.432;14.534;2022-12-18T03:21:55;37.72;;;11.02;;
75435;SDS011;64014;53.432;14.534;2022-12-18T03:24:22;36.83;;;9.73;;
75435;SDS011;64014;53.432;14.534;2022-12-18T03:26:52;33.28;;;9.77;;
75435;SDS011;64014;53.432;14.534;2022-12-18T03:29:27;36.72;;;11.35;;
75435;SDS011;64014;53.432;14.534;2022-12-18T03:32:05;36.33;;;12.35;;
75435;SDS011;64014;53.432;14.534;2022-12-18T03:34:35;37.95;;;10.95;;
75435;SDS011;64014;53.432;14.534;2022-12-18T03:37:04;34.25;;;9.88;;
75435;SDS011;64014;53.432;14.534;2022-12-18T03:39:30;34.72;;;9.90;;
75435;SDS011;64014;53.432;14.534;2022-12-18T03:47:30;34.10;;;11.45;;
75435;SDS011;64014;53.432;14.534;2022-12-18T03:50:22;42.00;;;10.15;;
75435;SDS011;64014;53.432;14.534;2022-12-18T03:56:01;38.78;;;12.02;;
75435;SDS011;64014;53.432;14.534;2022-12-18T03:58:29;41.42;;;11.07;;
75435;SDS011;64014;53.432;14.534;2022-12-18T04:00:58;41.65;;;12.32;;
75435;SDS011;64014;53.432;14.534;2022-12-18T04:03:28;44.10;;;14.57;;
75435;SDS011;64014;53.432;14.534;2022-12-18T04:05:55;40.70;;;12.38;;
75435;SDS011;64014;53.432;14.534;2022-12-18T04:08:23;42.50;;;12.05;;
75435;SDS011;64014;53.432;14.534;2022-12-18T04:10:50;42.67;;;12.77;;
75435;SDS011;64014;53.432;14.534;2022-12-18T04:13:23;45.45;;;14.63;;
75435;SDS011;64014;53.432;14.534;2022-12-18T04:15:52;41.40;;;13.20;;
75435;SDS011;64014;53.432;14.534;2022-12-18T04:18:18;52.33;;;16.23;;
75435;SDS011;64014;53.432;14.534;2022-12-18T04:20:44;39.67;;;11.93;;
75435;SDS011;64014;53.432;14.534;2022-12-18T04:23:10;43.83;;;13.75;;
75435;SDS011;64014;53.432;14.534;2022-12-18T04:25:36;42.22;;;13.70;;
75435;SDS011;64014;53.432;14.534;2022-12-18T04:28:01;48.85;;;13.48;;
75435;SDS011;64014;53.432;14.534;2022-12-18T04:30:27;44.22;;;13.00;;
75435;SDS011;64014;53.432;14.534;2022-12-18T04:32:55;41.90;;;12.68;;
75435;SDS011;64014;53.432;14.534;2022-12-18T04:35:21;36.13;;;11.18;;
75435;SDS011;64014;53.432;14.534;2022-12-18T04:37:46;36.20;;;11.65;;
75435;SDS011;64014;53.432;14.534;2022-12-18T04:40:12;39.75;;;12.27;;
75435;SDS011;64014;53.432;14.534;2022-12-18T04:42:38;42.33;;;12.98;;
75435;SDS011;64014;53.432;14.534;2022-12-18T04:45:05;43.95;;;13.40;;
75435;SDS011;64014;53.432;14.534;2022-12-18T04:47:32;42.67;;;14.32;;
75435;SDS011;64014;53.432;14.534;2022-12-18T04:49:57;42.08;;;12.88;;
75435;SDS011;64014;53.432;14.534;2022-12-18T04:52:23;41.17;;;12.65;;
75435;SDS011;64014;53.432;14.534;2022-12-18T04:54:49;41.33;;;13.00;;
75435;SDS011;64014;53.432;14.534;2022-12-18T04:57:15;43.22;;;13.82;;
75435;SDS011;64014;53.432;14.534;2022-12-18T04:59:43;40.40;;;12.57;;
75435;SDS011;64014;53.432;14.534;2022-12-18T05:02:09;37.20;;;10.68;;
75435;SDS011;64014;53.432;14.534;2022-12-18T05:04:35;39.55;;;13.07;;
75435;SDS011;64014;53.432;14.534;2022-12-18T05:07:00;38.13;;;13.23;;
75435;SDS011;64014;53.432;14.534;2022-12-18T05:09:26;41.58;;;12.07;;
75435;SDS011;64014;53.432;14.534;2022-12-18T05:11:52;34.85;;;11.63;;
75435;SDS011;64014;53.432;14.534;2022-12-18T05:14:17;36.28;;;11.55;;
75435;SDS011;64014;53.432;14.534;2022-12-18T05:16:43;38.88;;;12.25;;
75435;SDS011;64014;53.432;14.534;2022-12-18T05:19:09;39.17;;;11.20;;
75435;SDS011;64014;53.432;14.534;2022-12-18T05:21:34;39.03;;;11.73;;
75435;SDS011;64014;53.432;14.534;2022-12-18T05:24:00;41.75;;;13.00;;
75435;SDS011;64014;53.432;14.534;2022-12-18T05:26:26;38.58;;;12.05;;
75435;SDS011;64014;53.432;14.534;2022-12-18T05:28:51;36.90;;;13.20;;
75435;SDS011;64014;53.432;14.534;2022-12-18T05:31:17;35.40;;;10.38;;
75435;SDS011;64014;53.432;14.534;2022-12-18T05:33:43;40.30;;;11.48;;
75435;SDS011;64014;53.432;14.534;2022-12-18T05:36:09;41.67;;;14.05;;
75435;SDS011;64014;53.432;14.534;2022-12-18T05:38:36;41.65;;;12.40;;
75435;SDS011;64014;53.432;14.534;2022-12-18T05:41:03;32.80;;;11.23;;
75435;SDS011;64014;53.432;14.534;2022-12-18T05:43:29;35.15;;;11.02;;
75435;SDS011;64014;53.432;14.534;2022-12-18T05:45:55;30.63;;;9.95;;
75435;SDS011;64014;53.432;14.534;2022-12-18T05:48:22;29.27;;;10.57;;
75435;SDS011;64014;53.432;14.534;2022-12-18T05:50:49;29.30;;;9.52;;
75435;SDS011;64014;53.432;14.534;2022-12-18T05:53:16;29.83;;;9.52;;
75435;SDS011;64014;53.432;14.534;2022-12-18T05:55:43;24.25;;;8.00;;
75435;SDS011;64014;53.432;14.534;2022-12-18T05:58:09;25.33;;;8.85;;
75435;SDS011;64014;53.432;14.534;2022-12-18T06:00:37;27.08;;;9.80;;
75435;SDS011;64014;53.432;14.534;2022-12-18T06:03:07;36.25;;;9.63;;
75435;SDS011;64014;53.432;14.534;2022-12-18T06:05:38;28.40;;;9.38;;
75435;SDS011;64014;53.432;14.534;2022-12-18T06:08:07;28.38;;;9.45;;
75435;SDS011;64014;53.432;14.534;2022-12-18T06:10:33;30.80;;;10.38;;
75435;SDS011;64014;53.432;14.534;2022-12-18T06:12:59;31.27;;;10.70;;
75435;SDS011;64014;53.432;14.534;2022-12-18T06:15:26;30.58;;;9.68;;
75435;SDS011;64014;53.432;14.534;2022-12-18T06:17:51;29.13;;;9.82;;
75435;SDS011;64014;53.432;14.534;2022-12-18T06:20:17;30.40;;;10.88;;
75435;SDS011;64014;53.432;14.534;2022-12-18T06:22:43;29.58;;;9.85;;
75435;SDS011;64014;53.432;14.534;2022-12-18T06:25:09;30.77;;;10.57;;
75435;SDS011;64014;53.432;14.534;2022-12-18T06:27:35;33.80;;;11.25;;
75435;SDS011;64014;53.432;14.534;2022-12-18T06:30:01;33.22;;;11.63;;
75435;SDS011;64014;53.432;14.534;2022-12-18T06:32:27;29.83;;;10.60;;
75435;SDS011;64014;53.432;14.534;2022-12-18T06:34:53;35.05;;;11.23;;
75435;SDS011;64014;53.432;14.534;2022-12-18T06:37:20;33.38;;;10.90;;
75435;SDS011;64014;53.432;14.534;2022-12-18T06:39:46;28.80;;;9.82;;
75435;SDS011;64014;53.432;14.534;2022-12-18T06:42:11;27.55;;;10.73;;
75435;SDS011;64014;53.432;14.534;2022-12-18T06:44:37;33.45;;;11.68;;
75435;SDS011;64014;53.432;14.534;2022-12-18T06:47:03;33.42;;;10.73;;
75435;SDS011;64014;53.432;14.534;2022-12-18T06:49:29;33.72;;;12.13;;
75435;SDS011;64014;53.432;14.534;2022-12-18T06:51:54;29.08;;;10.20;;
75435;SDS011;64014;53.432;14.534;2022-12-18T06:54:20;29.65;;;9.48;;
75435;SDS011;64014;53.432;14.534;2022-12-18T06:56:46;34.63;;;10.95;;
75435;SDS011;64014;53.432;14.534;2022-12-18T06:59:12;34.08;;;10.82;;
75435;SDS011;64014;53.432;14.534;2022-12-18T07:01:38;27.23;;;9.57;;
75435;SDS011;64014;53.432;14.534;2022-12-18T07:04:04;28.63;;;10.50;;
75435;SDS011;64014;53.432;14.534;2022-12-18T07:06:29;30.10;;;9.63;;
75435;SDS011;64014;53.432;14.534;2022-12-18T07:08:55;25.13;;;9.15;;
75435;SDS011;64014;53.432;14.534;2022-12-18T07:11:21;30.30;;;11.45;;
75435;SDS011;64014;53.432;14.534;2022-12-18T07:13:47;28.00;;;9.15;;
75435;SDS011;64014;53.432;14.534;2022-12-18T07:18:40;27.10;;;9.20;;
75435;SDS011;64014;53.432;14.534;2022-12-18T07:21:06;27.83;;;10.20;;
75435;SDS011;64014;53.432;14.534;2022-12-18T07:23:34;24.52;;;9.90;;
75435;SDS011;64014;53.432;14.534;2022-12-18T07:26:04;32.25;;;11.68;;
75435;SDS011;64014;53.432;14.534;2022-12-18T07:28:35;27.63;;;9.00;;
75435;SDS011;64014;53.432;14.534;2022-12-18T07:31:05;27.67;;;10.05;;
75435;SDS011;64014;53.432;14.534;2022-12-18T07:33:33;39.15;;;14.93;;
75435;SDS011;64014;53.432;14.534;2022-12-18T07:36:03;29.17;;;9.98;;
75435;SDS011;64014;53.432;14.534;2022-12-18T07:38:31;22.55;;;9.00;;
75435;SDS011;64014;53.432;14.534;2022-12-18T07:41:00;27.52;;;10.45;;
75435;SDS011;64014;53.432;14.534;2022-12-18T07:43:30;23.50;;;8.85;;
75435;SDS011;64014;53.432;14.534;2022-12-18T07:45:56;19.98;;;8.75;;
75435;SDS011;64014;53.432;14.534;2022-12-18T07:48:23;26.85;;;9.98;;
75435;SDS011;64014;53.432;14.534;2022-12-18T07:50:48;26.60;;;10.40;;
75435;SDS011;64014;53.432;14.534;2022-12-18T07:53:14;26.08;;;9.98;;
75435;SDS011;64014;53.432;14.534;2022-12-18T07:55:43;23.92;;;9.85;;
75435;SDS011;64014;53.432;14.534;2022-12-18T07:58:09;23.70;;;9.52;;
75435;SDS011;64014;53.432;14.534;2022-12-18T08:00:35;23.17;;;8.57;;
75435;SDS011;64014;53.432;14.534;2022-12-18T08:03:01;24.67;;;9.07;;
75435;SDS011;64014;53.432;14.534;2022-12-18T08:05:27;24.08;;;11.05;;
75435;SDS011;64014;53.432;14.534;2022-12-18T08:07:53;28.30;;;9.82;;
75435;SDS011;64014;53.432;14.534;2022-12-18T08:10:19;28.85;;;10.80;;
75435;SDS011;64014;53.432;14.534;2022-12-18T08:12:48;26.70;;;10.65;;
75435;SDS011;64014;53.432;14.534;2022-12-18T08:15:14;25.50;;;10.23;;
75435;SDS011;64014;53.432;14.534;2022-12-18T08:17:40;50.65;;;18.88;;
75435;SDS011;64014;53.432;14.534;2022-12-18T08:20:06;28.20;;;10.95;;
75435;SDS011;64014;53.432;14.534;2022-12-18T08:22:33;23.30;;;8.88;;
75435;SDS011;64014;53.432;14.534;2022-12-18T08:25:03;23.92;;;8.38;;
75435;SDS011;64014;53.432;14.534;2022-12-18T08:27:29;20.45;;;7.32;;
75435;SDS011;64014;53.432;14.534;2022-12-18T08:29:55;24.20;;;8.52;;
75435;SDS011;64014;53.432;14.534;2022-12-18T08:32:22;22.48;;;8.15;;
75435;SDS011;64014;53.432;14.534;2022-12-18T08:34:48;26.98;;;9.18;;
75435;SDS011;64014;53.432;14.534;2022-12-18T08:37:13;29.45;;;10.52;;
75435;SDS011;64014;53.432;14.534;2022-12-18T08:39:39;29.67;;;12.05;;
75435;SDS011;64014;53.432;14.534;2022-12-18T08:42:05;32.10;;;11.55;;
75435;SDS011;64014;53.432;14.534;2022-12-18T08:44:49;29.60;;;11.50;;
75435;SDS011;64014;53.432;14.534;2022-12-18T08:47:15;29.23;;;13.10;;
75435;SDS011;64014;53.432;14.534;2022-12-18T08:49:40;31.60;;;10.35;;
75435;SDS011;64014;53.432;14.534;2022-12-18T08:52:06;24.70;;;8.68;;
75435;SDS011;64014;53.432;14.534;2022-12-18T08:54:32;25.33;;;9.70;;
75435;SDS011;64014;53.432;14.534;2022-12-18T08:56:58;26.55;;;10.18;;
75435;SDS011;64014;53.432;14.534;2022-12-18T08:59:23;29.30;;;11.05;;
75435;SDS011;64014;53.432;14.534;2022-12-18T09:01:49;25.25;;;10.02;;
75435;SDS011;64014;53.432;14.534;2022-12-18T09:04:15;33.25;;;13.68;;
75435;SDS011;64014;53.432;14.534;2022-12-18T09:06:41;31.10;;;12.70;;
75435;SDS011;64014;53.432;14.534;2022-12-18T09:09:07;25.83;;;8.88;;
75435;SDS011;64014;53.432;14.534;2022-12-18T09:11:34;29.58;;;11.57;;
75435;SDS011;64014;53.432;14.534;2022-12-18T09:14:00;36.75;;;12.13;;
75435;SDS011;64014;53.432;14.534;2022-12-18T09:16:26;25.00;;;9.52;;
75435;SDS011;64014;53.432;14.534;2022-12-18T09:18:54;26.13;;;9.65;;
75435;SDS011;64014;53.432;14.534;2022-12-18T09:21:24;22.83;;;9.60;;
75435;SDS011;64014;53.432;14.534;2022-12-18T09:23:51;25.15;;;9.50;;
75435;SDS011;64014;53.432;14.534;2022-12-18T09:26:18;27.38;;;10.85;;
75435;SDS011;64014;53.432;14.534;2022-12-18T09:28:44;26.33;;;11.57;;
75435;SDS011;64014;53.432;14.534;2022-12-18T09:31:11;25.63;;;10.43;;
75435;SDS011;64014;53.432;14.534;2022-12-18T09:33:37;23.23;;;8.75;;
75435;SDS011;64014;53.432;14.534;2022-12-18T09:36:05;29.33;;;11.48;;
75435;SDS011;64014;53.432;14.534;2022-12-18T09:38:32;31.10;;;11.50;;
75435;SDS011;64014;53.432;14.534;2022-12-18T09:41:06;40.28;;;14.25;;
75435;SDS011;64014;53.432;14.534;2022-12-18T09:43:53;41.72;;;17.67;;
75435;SDS011;64014;53.432;14.534;2022-12-18T09:46:23;31.08;;;13.13;;
75435;SDS011;64014;53.432;14.534;2022-12-18T09:48:54;28.52;;;11.80;;
75435;SDS011;64014;53.432;14.534;2022-12-18T09:51:28;27.15;;;10.20;;
75435;SDS011;64014;53.432;14.534;2022-12-18T09:54:14;21.75;;;9.60;;
75435;SDS011;64014;53.432;14.534;2022-12-18T09:56:45;23.95;;;11.40;;
75435;SDS011;64014;53.432;14.534;2022-12-18T09:59:20;27.63;;;10.95;;
75435;SDS011;64014;53.432;14.534;2022-12-18T10:01:51;26.58;;;9.35;;
75435;SDS011;64014;53.432;14.534;2022-12-18T10:04:17;21.17;;;7.78;;
75435;SDS011;64014;53.432;14.534;2022-12-18T10:06:50;24.95;;;9.15;;
75435;SDS011;64014;53.432;14.534;2022-12-18T10:09:37;22.27;;;10.05;;
75435;SDS011;64014;53.432;14.534;2022-12-18T10:12:18;24.80;;;9.90;;
75435;SDS011;64014;53.432;14.534;2022-12-18T10:15:24;26.75;;;10.00;;
75435;SDS011;64014;53.432;14.534;2022-12-18T10:26:02;28.02;;;11.93;;
75435;SDS011;64014;53.432;14.534;2022-12-18T10:28:29;25.23;;;9.65;;
75435;SDS011;64014;53.432;14.534;2022-12-18T10:30:57;30.85;;;11.10;;
75435;SDS011;64014;53.432;14.534;2022-12-18T10:33:27;27.85;;;12.48;;
75435;SDS011;64014;53.432;14.534;2022-12-18T10:35:54;28.70;;;12.77;;
75435;SDS011;64014;53.432;14.534;2022-12-18T10:38:25;28.60;;;13.60;;
75435;SDS011;64014;53.432;14.534;2022-12-18T10:43:32;38.47;;;18.67;;
75435;SDS011;64014;53.432;14.534;2022-12-18T10:51:27;36.05;;;17.45;;
75435;SDS011;64014;53.432;14.534;2022-12-18T10:56:22;38.15;;;17.35;;
75435;SDS011;64014;53.432;14.534;2022-12-18T10:58:57;40.63;;;17.13;;
75435;SDS011;64014;53.432;14.534;2022-12-18T11:01:32;38.83;;;14.45;;
75435;SDS011;64014;53.432;14.534;2022-12-18T11:04:13;45.03;;;16.50;;
75435;SDS011;64014;53.432;14.534;2022-12-18T11:06:59;35.97;;;14.02;;
75435;SDS011;64014;53.432;14.534;2022-12-18T11:09:36;37.22;;;14.00;;
75435;SDS011;64014;53.432;14.534;2022-12-18T11:12:13;33.70;;;14.15;;
75435;SDS011;64014;53.432;14.534;2022-12-18T11:17:28;40.90;;;16.63;;
75435;SDS011;64014;53.432;14.534;2022-12-18T11:19:56;37.78;;;16.50;;
75435;SDS011;64014;53.432;14.534;2022-12-18T11:22:32;31.75;;;12.52;;
75435;SDS011;64014;53.432;14.534;2022-12-18T11:38:37;29.33;;;13.07;;
75435;SDS011;64014;53.432;14.534;2022-12-18T11:41:09;29.00;;;12.43;;
75435;SDS011;64014;53.432;14.534;2022-12-18T11:46:32;29.80;;;11.98;;
75435;SDS011;64014;53.432;14.534;2022-12-18T11:51:37;31.35;;;14.57;;
75435;SDS011;64014;53.432;14.534;2022-12-18T11:54:12;30.92;;;13.05;;
75435;SDS011;64014;53.432;14.534;2022-12-18T12:05:20;29.40;;;12.85;;
75435;SDS011;64014;53.432;14.534;2022-12-18T12:08:11;35.35;;;15.52;;
75435;SDS011;64014;53.432;14.534;2022-12-18T12:22:19;30.85;;;13.52;;
75435;SDS011;64014;53.432;14.534;2022-12-18T12:24:59;29.42;;;13.27;;
75435;SDS011;64014;53.432;14.534;2022-12-18T12:30:16;29.85;;;12.40;;
75435;SDS011;64014;53.432;14.534;2022-12-18T12:32:49;30.52;;;13.68;;
75435;SDS011;64014;53.432;14.534;2022-12-18T12:39:06;34.25;;;14.35;;
75435;SDS011;64014;53.432;14.534;2022-12-18T12:41:09;29.30;;;12.82;;
75435;SDS011;64014;53.432;14.534;2022-12-18T12:44:01;35.22;;;12.70;;
75435;SDS011;64014;53.432;14.534;2022-12-18T12:46:31;31.02;;;13.15;;
75435;SDS011;64014;53.432;14.534;2022-12-18T12:49:02;31.70;;;13.57;;
75435;SDS011;64014;53.432;14.534;2022-12-18T12:51:37;56.47;;;22.90;;
75435;SDS011;64014;53.432;14.534;2022-12-18T12:54:08;37.22;;;15.32;;
75435;SDS011;64014;53.432;14.534;2022-12-18T13:10:25;31.85;;;14.25;;
75435;SDS011;64014;53.432;14.534;2022-12-18T13:13:03;33.72;;;13.05;;
75435;SDS011;64014;53.432;14.534;2022-12-18T13:18:05;31.35;;;14.35;;
75435;SDS011;64014;53.432;14.534;2022-12-18T13:20:37;32.42;;;14.27;;
75435;SDS011;64014;53.432;14.534;2022-12-18T13:25:57;30.35;;;13.20;;
75435;SDS011;64014;53.432;14.534;2022-12-18T13:31:11;33.28;;;13.68;;
75435;SDS011;64014;53.432;14.534;2022-12-18T13:36:48;30.10;;;12.80;;
75435;SDS011;64014;53.432;14.534;2022-12-18T13:41:50;35.20;;;15.05;;
75435;SDS011;64014;53.432;14.534;2022-12-18T13:44:59;33.95;;;14.52;;
75435;SDS011;64014;53.432;14.534;2022-12-18T13:47:36;30.42;;;13.52;;
75435;SDS011;64014;53.432;14.534;2022-12-18T13:50:10;42.63;;;17.13;;
75435;SDS011;64014;53.432;14.534;2022-12-18T13:52:50;38.00;;;18.33;;
75435;SDS011;64014;53.432;14.534;2022-12-18T13:55:16;36.55;;;15.27;;
75435;SDS011;64014;53.432;14.534;2022-12-18T13:57:44;29.95;;;13.23;;
75435;SDS011;64014;53.432;14.534;2022-12-18T14:00:27;30.05;;;11.48;;
75435;SDS011;64014;53.432;14.534;2022-12-18T14:02:54;37.35;;;15.75;;
75435;SDS011;64014;53.432;14.534;2022-12-18T14:05:22;29.45;;;12.75;;
75435;SDS011;64014;53.432;14.534;2022-12-18T14:07:55;27.88;;;12.05;;
75435;SDS011;64014;53.432;14.534;2022-12-18T14:10:33;24.52;;;11.25;;
75435;SDS011;64014;53.432;14.534;2022-12-18T14:13:04;28.40;;;11.88;;
75435;SDS011;64014;53.432;14.534;2022-12-18T14:15:39;24.42;;;11.68;;
75435;SDS011;64014;53.432;14.534;2022-12-18T14:20:53;40.90;;;15.73;;
75435;SDS011;64014;53.432;14.534;2022-12-18T14:23:35;31.95;;;14.00;;
75435;SDS011;64014;53.432;14.534;2022-12-18T14:26:17;28.10;;;11.77;;
75435;SDS011;64014;53.432;14.534;2022-12-18T14:28:46;25.73;;;11.70;;
75435;SDS011;64014;53.432;14.534;2022-12-18T14:31:19;24.80;;;9.52;;
75435;SDS011;64014;53.432;14.534;2022-12-18T14:33:45;27.15;;;11.20;;
75435;SDS011;64014;53.432;14.534;2022-12-18T14:36:13;27.05;;;12.40;;
75435;SDS011;64014;53.432;14.534;2022-12-18T14:38:48;29.42;;;11.48;;
75435;SDS011;64014;53.432;14.534;2022-12-18T14:41:19;27.92;;;10.35;;
75435;SDS011;64014;53.432;14.534;2022-12-18T14:43:47;30.15;;;13.35;;
75435;SDS011;64014;53.432;14.534;2022-12-18T14:48:54;27.83;;;12.73;;
75435;SDS011;64014;53.432;14.534;2022-12-18T14:51:22;28.83;;;11.90;;
75435;SDS011;64014;53.432;14.534;2022-12-18T14:53:56;24.85;;;10.80;;
75435;SDS011;64014;53.432;14.534;2022-12-18T14:59:04;28.27;;;11.23;;
75435;SDS011;64014;53.432;14.534;2022-12-18T15:01:38;25.63;;;10.45;;
75435;SDS011;64014;53.432;14.534;2022-12-18T15:04:31;25.25;;;10.55;;
75435;SDS011;64014;53.432;14.534;2022-12-18T15:07:23;23.73;;;10.02;;
75435;SDS011;64014;53.432;14.534;2022-12-18T15:12:40;31.90;;;12.75;;
75435;SDS011;64014;53.432;14.534;2022-12-18T15:17:58;36.53;;;14.30;;
75435;SDS011;64014;53.432;14.534;2022-12-18T15:20:26;36.58;;;15.77;;
75435;SDS011;64014;53.432;14.534;2022-12-18T15:22:52;34.47;;;15.00;;
75435;SDS011;64014;53.432;14.534;2022-12-18T15:25:27;29.60;;;13.25;;
75435;SDS011;64014;53.432;14.534;2022-12-18T15:27:57;27.90;;;11.98;;
75435;SDS011;64014;53.432;14.534;2022-12-18T15:30:23;28.25;;;11.32;;
75435;SDS011;64014;53.432;14.534;2022-12-18T15:32:50;31.15;;;11.70;;
75435;SDS011;64014;53.432;14.534;2022-12-18T15:35:19;25.55;;;9.77;;
75435;SDS011;64014;53.432;14.534;2022-12-18T15:37:50;32.78;;;13.20;;
75435;SDS011;64014;53.432;14.534;2022-12-18T15:40:21;48.50;;;18.92;;
75435;SDS011;64014;53.432;14.534;2022-12-18T15:42:48;28.85;;;11.15;;
75435;SDS011;64014;53.432;14.534;2022-12-18T15:45:37;33.75;;;14.77;;
75435;SDS011;64014;53.432;14.534;2022-12-18T15:48:19;35.40;;;13.65;;
75435;SDS011;64014;53.432;14.534;2022-12-18T15:50:46;35.38;;;13.70;;
75435;SDS011;64014;53.432;14.534;2022-12-18T15:53:12;31.48;;;11.65;;
75435;SDS011;64014;53.432;14.534;2022-12-18T15:55:38;33.03;;;12.93;;
75435;SDS011;64014;53.432;14.534;2022-12-18T15:58:22;33.60;;;13.65;;
75435;SDS011;64014;53.432;14.534;2022-12-18T16:00:48;40.55;;;15.15;;
75435;SDS011;64014;53.432;14.534;2022-12-18T16:03:13;41.85;;;15.75;;
75435;SDS011;64014;53.432;14.534;2022-12-18T16:05:39;36.55;;;16.15;;
75435;SDS011;64014;53.432;14.534;2022-12-18T16:08:05;41.35;;;18.40;;
75435;SDS011;64014;53.432;14.534;2022-12-18T16:10:33;37.60;;;13.40;;
75435;SDS011;64014;53.432;14.534;2022-12-18T16:13:00;32.28;;;13.35;;
75435;SDS011;64014;53.432;14.534;2022-12-18T16:15:25;33.33;;;13.52;;
75435;SDS011;64014;53.432;14.534;2022-12-18T16:17:51;34.17;;;12.88;;
75435;SDS011;64014;53.432;14.534;2022-12-18T16:20:19;31.98;;;12.18;;
75435;SDS011;64014;53.432;14.534;2022-12-18T16:22:46;38.38;;;14.50;;
75435;SDS011;64014;53.432;14.534;2022-12-18T16:25:16;32.90;;;12.48;;
75435;SDS011;64014;53.432;14.534;2022-12-18T16:27:49;29.60;;;11.57;;
75435;SDS011;64014;53.432;14.534;2022-12-18T16:30:16;33.05;;;12.35;;
75435;SDS011;64014;53.432;14.534;2022-12-18T16:32:45;32.45;;;11.02;;
75435;SDS011;64014;53.432;14.534;2022-12-18T16:35:14;32.13;;;13.10;;
75435;SDS011;64014;53.432;14.534;2022-12-18T16:37:41;31.67;;;13.48;;
75435;SDS011;64014;53.432;14.534;2022-12-18T16:40:08;28.08;;;11.77;;
75435;SDS011;64014;53.432;14.534;2022-12-18T16:42:36;31.92;;;11.93;;
75435;SDS011;64014;53.432;14.534;2022-12-18T16:45:03;29.50;;;12.98;;
75435;SDS011;64014;53.432;14.534;2022-12-18T16:47:30;29.70;;;13.43;;
75435;SDS011;64014;53.432;14.534;2022-12-18T16:49:56;32.03;;;13.68;;
75435;SDS011;64014;53.432;14.534;2022-12-18T16:52:22;43.97;;;18.08;;